Time;durP1;ratioP1;P1;durP2;ratioP2;P2;SDS_P1;SDS_P2;PMS_P1;PMS_P2;Temp;Humidity;BMP_temperature;BMP_pressure;BME280_temperature;BME280_humidity;BME280_pressure;Samples;Min_cycle;Max_cycle;Signal;HPM_P1;HPM_P2
2021/10/18 00:01:09;;;;;;;16.43;12.40;;;10.20;99.90;;;;;;5016092;28;20550;-60
2021/10/18 00:03:34;;;;;;;15.80;11.80;;;10.20;99.90;;;;;;5022797;28;20195;-60
2021/10/18 00:06:00;;;;;;;16.73;13.13;;;10.20;99.90;;;;;;5021577;28;20188;-60
2021/10/18 00:08:25;;;;;;;16.30;11.73;;;10.10;99.90;;;;;;5021491;28;20192;-60
2021/10/18 00:10:51;;;;;;;17.00;11.70;;;10.20;99.90;;;;;;5019784;28;20247;-59
2021/10/18 00:13:17;;;;;;;17.63;11.97;;;10.20;99.90;;;;;;5020962;28;20292;-60
2021/10/18 00:15:43;;;;;;;16.40;11.67;;;10.10;99.90;;;;;;5020863;28;20192;-61
2021/10/18 00:18:08;;;;;;;16.40;11.90;;;10.20;99.90;;;;;;5017900;28;20413;-61
2021/10/18 00:20:34;;;;;;;22.17;12.73;;;10.20;99.90;;;;;;5019509;28;20212;-61
2021/10/18 00:23:00;;;;;;;18.47;12.10;;;10.10;99.90;;;;;;5022696;28;20670;-60
2021/10/18 00:25:26;;;;;;;16.73;11.87;;;10.10;99.90;;;;;;5023222;28;20435;-61
2021/10/18 00:27:52;;;;;;;14.87;10.90;;;10.20;99.90;;;;;;5018837;28;20185;-61
2021/10/18 00:30:17;;;;;;;16.37;11.47;;;10.20;99.90;;;;;;5020296;28;20216;-61
2021/10/18 00:32:43;;;;;;;14.17;10.90;;;10.10;99.90;;;;;;5021065;28;20207;-61
2021/10/18 00:35:09;;;;;;;17.07;11.57;;;10.10;99.90;;;;;;5019106;28;20220;-61
2021/10/18 00:37:36;;;;;;;14.90;11.10;;;10.20;99.90;;;;;;5018343;28;20188;-61
2021/10/18 00:40:02;;;;;;;15.67;12.03;;;10.20;99.90;;;;;;5020115;28;20957;-61
2021/10/18 00:42:28;;;;;;;16.07;11.37;;;10.10;99.90;;;;;;5019059;28;20440;-61
2021/10/18 00:44:53;;;;;;;17.73;11.67;;;10.10;99.90;;;;;;5019111;28;20933;-61
2021/10/18 00:47:20;;;;;;;13.50;10.43;;;10.10;99.90;;;;;;5018143;28;20196;-61
2021/10/18 00:49:46;;;;;;;13.67;11.20;;;10.20;99.90;;;;;;5022911;28;20870;-60
2021/10/18 00:52:14;;;;;;;18.60;11.10;;;10.20;99.90;;;;;;5018704;28;20439;-60
2021/10/18 00:54:40;;;;;;;15.17;10.57;;;10.10;99.90;;;;;;5024002;28;20869;-61
2021/10/18 00:57:05;;;;;;;15.13;11.00;;;10.10;99.90;;;;;;5018307;28;20454;-60
2021/10/18 00:59:33;;;;;;;15.40;10.63;;;9.80;99.90;;;;;;5018799;28;21188;-61
2021/10/18 01:02:00;;;;;;;12.90;10.07;;;9.60;99.90;;;;;;5019900;28;20220;-60
2021/10/18 01:04:26;;;;;;;15.50;11.03;;;9.40;99.90;;;;;;5021733;28;21192;-61
2021/10/18 01:06:52;;;;;;;16.30;10.70;;;9.60;99.90;;;;;;5025242;28;20441;-61
2021/10/18 01:09:17;;;;;;;14.27;10.50;;;9.40;99.90;;;;;;5016662;28;20197;-61
2021/10/18 01:11:43;;;;;;;12.70;10.10;;;9.40;99.90;;;;;;5021180;28;20470;-61
2021/10/18 01:14:09;;;;;;;12.40;9.87;;;9.30;99.90;;;;;;5016913;28;20656;-61
2021/10/18 01:16:35;;;;;;;15.13;10.97;;;9.40;99.90;;;;;;5022033;28;20192;-61
2021/10/18 01:19:16;;;;;;;17.20;10.13;;;9.40;99.90;;;;;;5021426;28;20423;-61
2021/10/18 01:21:42;;;;;;;15.17;9.80;;;9.40;99.90;;;;;;5023246;28;20358;-61
2021/10/18 01:24:08;;;;;;;14.40;9.30;;;9.60;99.90;;;;;;5022273;28;20443;-61
2021/10/18 01:26:34;;;;;;;11.47;9.87;;;9.70;99.90;;;;;;5021424;28;20441;-60
2021/10/18 01:29:00;;;;;;;15.87;10.97;;;9.70;99.90;;;;;;5023121;28;20435;-61
2021/10/18 01:31:26;;;;;;;13.00;10.00;;;9.30;99.90;;;;;;5015170;28;20544;-61
2021/10/18 01:33:52;;;;;;;12.77;9.30;;;9.20;99.90;;;;;;5019573;28;20188;-61
2021/10/18 01:36:18;;;;;;;12.37;11.07;;;9.00;99.90;;;;;;5014976;28;20197;-60
2021/10/18 01:38:44;;;;;;;12.20;9.97;;;9.10;99.90;;;;;;5023067;28;20615;-60
2021/10/18 01:41:10;;;;;;;19.90;10.53;;;9.20;99.90;;;;;;5020472;28;20479;-60
2021/10/18 01:43:35;;;;;;;13.80;9.83;;;9.20;99.90;;;;;;5022010;28;20262;-61
2021/10/18 01:46:01;;;;;;;14.17;9.17;;;9.40;99.90;;;;;;5023760;28;20188;-61
2021/10/18 01:48:28;;;;;;;13.03;9.10;;;9.60;99.90;;;;;;5020657;28;20726;-60
2021/10/18 01:50:54;;;;;;;13.23;9.43;;;9.70;99.90;;;;;;5017288;28;20216;-61
2021/10/18 01:53:20;;;;;;;14.00;9.33;;;9.70;99.90;;;;;;5019714;28;20909;-60
2021/10/18 01:55:45;;;;;;;12.33;9.33;;;9.40;99.90;;;;;;5020820;28;20678;-60
2021/10/18 01:58:11;;;;;;;16.57;9.97;;;9.40;99.90;;;;;;5022741;28;20236;-60
2021/10/18 02:00:39;;;;;;;14.93;8.37;;;9.50;99.90;;;;;;5020840;28;20584;-61
2021/10/18 02:03:05;;;;;;;12.50;9.17;;;9.50;99.90;;;;;;5015030;28;20436;-61
2021/10/18 02:05:31;;;;;;;13.50;10.20;;;9.60;99.90;;;;;;5023872;28;20951;-61
2021/10/18 02:07:56;;;;;;;12.53;8.83;;;9.50;99.90;;;;;;5018236;28;20552;-60
2021/10/18 02:10:22;;;;;;;13.10;9.43;;;9.60;99.90;;;;;;5021639;28;20476;-61
2021/10/18 02:12:48;;;;;;;12.00;8.93;;;9.60;99.90;;;;;;5022898;28;20190;-60
2021/10/18 02:15:14;;;;;;;14.80;9.67;;;9.50;99.90;;;;;;5026739;28;20658;-61
2021/10/18 02:17:41;;;;;;;11.17;8.20;;;9.50;99.90;;;;;;5019524;28;20889;-61
2021/10/18 02:20:08;;;;;;;13.40;10.13;;;9.50;99.90;;;;;;5011668;28;20854;-60
2021/10/18 02:22:35;;;;;;;17.70;9.37;;;9.40;99.90;;;;;;5024759;28;20447;-61
2021/10/18 02:25:01;;;;;;;13.03;9.33;;;9.30;99.90;;;;;;5023409;28;20835;-61
2021/10/18 02:27:27;;;;;;;9.80;8.07;;;9.40;99.90;;;;;;5022670;28;20438;-61
2021/10/18 02:29:53;;;;;;;10.70;8.13;;;9.40;99.90;;;;;;5025601;28;20427;-61
2021/10/18 02:32:19;;;;;;;11.97;9.10;;;9.50;99.90;;;;;;5022932;28;20192;-61
2021/10/18 02:34:44;;;;;;;10.80;8.13;;;9.60;99.90;;;;;;5007523;28;20431;-60
2021/10/18 02:37:10;;;;;;;10.10;8.80;;;9.60;99.90;;;;;;5021634;28;20467;-60
2021/10/18 02:39:36;;;;;;;9.80;8.33;;;9.60;99.90;;;;;;5019642;28;20181;-60
2021/10/18 02:42:01;;;;;;;9.90;8.50;;;9.60;99.90;;;;;;5024776;28;20181;-60
2021/10/18 02:44:27;;;;;;;17.07;8.70;;;9.50;99.90;;;;;;5021695;28;20673;-60
2021/10/18 02:46:53;;;;;;;11.57;9.03;;;9.30;99.90;;;;;;5026840;28;20191;-60
2021/10/18 02:49:21;;;;;;;10.80;9.13;;;9.30;99.90;;;;;;5022593;28;20189;-60
2021/10/18 02:51:47;;;;;;;10.60;9.20;;;9.30;99.90;;;;;;5024150;28;20221;-60
2021/10/18 02:54:13;;;;;;;9.83;8.10;;;9.30;99.90;;;;;;5020544;28;20420;-60
2021/10/18 02:56:39;;;;;;;10.50;8.30;;;9.40;99.90;;;;;;5024132;28;20429;-60
2021/10/18 02:59:05;;;;;;;10.37;8.23;;;9.20;99.90;;;;;;5026740;28;20422;-60
2021/10/18 03:01:30;;;;;;;9.47;7.50;;;9.10;99.90;;;;;;5023901;28;20230;-60
2021/10/18 03:03:56;;;;;;;10.80;8.30;;;9.10;99.90;;;;;;5023699;28;20238;-60
2021/10/18 03:06:22;;;;;;;11.83;8.43;;;9.20;99.90;;;;;;5023702;28;20189;-60
2021/10/18 03:08:47;;;;;;;9.47;8.00;;;9.30;99.90;;;;;;5024950;28;20219;-60
2021/10/18 03:11:13;;;;;;;11.37;9.70;;;9.30;99.90;;;;;;5021685;28;20266;-60
2021/10/18 03:13:38;;;;;;;10.57;8.63;;;9.30;99.90;;;;;;5029178;28;20192;-60
2021/10/18 03:16:04;;;;;;;11.10;8.00;;;9.00;99.90;;;;;;5022198;28;20193;-60
2021/10/18 03:18:30;;;;;;;10.37;9.23;;;9.20;99.90;;;;;;5021333;28;20231;-60
2021/10/18 03:20:56;;;;;;;9.50;8.23;;;9.30;99.90;;;;;;5022731;28;20454;-60
2021/10/18 03:23:21;;;;;;;9.77;8.17;;;9.10;99.90;;;;;;5024057;28;20611;-60
2021/10/18 03:25:47;;;;;;;11.20;8.90;;;9.00;99.90;;;;;;5018524;28;20185;-60
2021/10/18 03:28:12;;;;;;;10.27;8.03;;;9.00;99.90;;;;;;5024155;28;20181;-60
2021/10/18 03:30:38;;;;;;;12.90;10.13;;;9.00;99.90;;;;;;5022163;28;20332;-60
2021/10/18 03:33:04;;;;;;;12.87;8.30;;;9.00;99.90;;;;;;5020109;28;20331;-60
2021/10/18 03:35:29;;;;;;;11.60;8.17;;;9.10;99.90;;;;;;5018578;28;20860;-60
2021/10/18 03:37:55;;;;;;;12.00;8.73;;;9.00;99.90;;;;;;5024290;28;20230;-60
2021/10/18 03:40:21;;;;;;;13.47;9.97;;;8.90;99.90;;;;;;5019566;28;20235;-60
2021/10/18 03:42:47;;;;;;;11.20;9.80;;;9.00;99.90;;;;;;5021941;28;20193;-60
2021/10/18 03:45:14;;;;;;;10.53;9.43;;;9.10;99.90;;;;;;5020365;28;20477;-60
2021/10/18 03:47:40;;;;;;;10.63;8.90;;;9.10;99.90;;;;;;5023341;28;20191;-60
2021/10/18 03:50:07;;;;;;;8.90;8.00;;;9.20;99.90;;;;;;5020077;28;20481;-60
2021/10/18 03:52:32;;;;;;;10.97;7.90;;;9.30;99.90;;;;;;5022449;28;20449;-60
2021/10/18 03:54:58;;;;;;;9.77;8.77;;;9.20;99.90;;;;;;5024075;28;20497;-60
2021/10/18 03:57:24;;;;;;;10.27;8.20;;;9.20;99.90;;;;;;5018650;28;20755;-60
2021/10/18 03:59:49;;;;;;;12.33;9.50;;;9.10;99.90;;;;;;5023563;28;20216;-60
2021/10/18 04:02:15;;;;;;;13.23;10.90;;;9.40;99.90;;;;;;5021401;28;20186;-60
2021/10/18 04:04:41;;;;;;;12.83;8.97;;;9.50;99.90;;;;;;5019953;28;20736;-60
2021/10/18 04:07:06;;;;;;;14.83;10.03;;;9.50;99.90;;;;;;5022076;28;20435;-60
2021/10/18 04:09:33;;;;;;;12.90;10.03;;;9.40;99.90;;;;;;5020207;28;20193;-60
2021/10/18 04:11:59;;;;;;;14.77;10.33;;;9.30;99.90;;;;;;5026295;28;20628;-60
2021/10/18 04:14:25;;;;;;;13.27;11.07;;;9.50;99.90;;;;;;5017208;28;20535;-60
2021/10/18 04:16:50;;;;;;;13.93;10.00;;;9.40;99.90;;;;;;5024295;28;20511;-60
2021/10/18 04:19:16;;;;;;;14.03;10.63;;;9.40;99.90;;;;;;5022119;28;20565;-60
2021/10/18 04:21:41;;;;;;;17.37;11.83;;;9.40;99.90;;;;;;5024071;28;20208;-60
2021/10/18 04:24:07;;;;;;;16.57;11.27;;;9.40;99.90;;;;;;5021198;28;20214;-60
2021/10/18 04:26:33;;;;;;;14.23;11.10;;;9.20;99.90;;;;;;5021834;28;20681;-60
2021/10/18 04:28:58;;;;;;;13.00;10.40;;;9.10;99.90;;;;;;5023089;28;20193;-60
2021/10/18 04:31:28;;;;;;;14.50;10.13;;;8.90;99.90;;;;;;5022861;28;20278;-60
2021/10/18 04:33:56;;;;;;;14.53;10.87;;;9.10;99.90;;;;;;5015287;28;20177;-60
2021/10/18 04:36:22;;;;;;;12.60;9.73;;;9.00;99.90;;;;;;5020549;28;20419;-60
2021/10/18 04:38:47;;;;;;;15.23;10.70;;;8.80;99.90;;;;;;5016116;28;20481;-60
2021/10/18 04:41:13;;;;;;;14.00;10.93;;;9.00;99.90;;;;;;5020547;28;20546;-60
2021/10/18 04:43:39;;;;;;;13.40;9.70;;;8.80;99.90;;;;;;5020608;28;20188;-60
2021/10/18 04:46:04;;;;;;;13.33;9.90;;;8.80;99.90;;;;;;5018403;28;20539;-60
2021/10/18 04:48:30;;;;;;;13.57;9.47;;;8.70;99.90;;;;;;5019197;28;20289;-60
2021/10/18 04:50:55;;;;;;;14.33;9.67;;;8.80;99.90;;;;;;5020180;28;20707;-60
2021/10/18 04:53:21;;;;;;;13.23;10.37;;;8.90;99.90;;;;;;5020461;28;20193;-60
2021/10/18 04:55:46;;;;;;;11.77;9.63;;;8.80;99.90;;;;;;5019606;28;20184;-60
2021/10/18 04:58:12;;;;;;;13.20;9.27;;;8.50;99.90;;;;;;5021525;28;20254;-60
2021/10/18 05:00:44;;;;;;;10.83;8.67;;;8.70;99.90;;;;;;5023787;28;20219;-60
2021/10/18 05:03:10;;;;;;;11.33;9.10;;;8.90;99.90;;;;;;5018215;28;20177;-59
2021/10/18 05:05:35;;;;;;;13.83;9.37;;;8.80;99.90;;;;;;5019494;28;20561;-60
2021/10/18 05:08:03;;;;;;;14.13;9.20;;;8.80;99.90;;;;;;5021620;28;20181;-59
2021/10/18 05:10:28;;;;;;;15.20;9.90;;;8.80;99.90;;;;;;5014154;28;20223;-59
2021/10/18 05:12:54;;;;;;;13.70;9.87;;;8.70;99.90;;;;;;5024668;28;20427;-59
2021/10/18 05:15:20;;;;;;;12.40;8.90;;;8.50;99.90;;;;;;5019785;28;20192;-59
2021/10/18 05:17:45;;;;;;;14.03;9.80;;;8.60;99.90;;;;;;5018100;28;20177;-59
2021/10/18 05:20:11;;;;;;;15.20;9.70;;;8.50;99.90;;;;;;5022268;28;20208;-59
2021/10/18 05:22:36;;;;;;;11.77;8.90;;;8.50;99.90;;;;;;5015901;28;20540;-59
2021/10/18 05:25:02;;;;;;;12.90;9.30;;;8.60;99.90;;;;;;5016491;28;20184;-61
2021/10/18 05:27:28;;;;;;;12.80;9.70;;;8.70;99.90;;;;;;5017688;28;20255;-62
2021/10/18 05:29:54;;;;;;;14.73;9.97;;;8.80;99.90;;;;;;5016312;28;20426;-60
2021/10/18 05:32:19;;;;;;;15.80;9.60;;;9.00;99.90;;;;;;5018254;28;20247;-60
2021/10/18 05:34:45;;;;;;;12.13;9.57;;;8.80;99.90;;;;;;5021325;28;20272;-60
2021/10/18 05:37:11;;;;;;;13.17;9.60;;;8.80;99.90;;;;;;5019326;28;20184;-62
2021/10/18 05:39:36;;;;;;;12.70;8.73;;;8.90;99.90;;;;;;5019737;28;20184;-62
2021/10/18 05:42:02;;;;;;;16.13;10.43;;;8.90;99.90;;;;;;5015399;28;20655;-62
2021/10/18 05:44:27;;;;;;;14.80;10.00;;;8.90;99.90;;;;;;5022075;28;20192;-62
2021/10/18 05:46:53;;;;;;;18.80;9.70;;;8.60;99.90;;;;;;5023023;28;20187;-62
2021/10/18 05:49:19;;;;;;;12.97;10.27;;;8.60;99.90;;;;;;5020274;28;20629;-61
2021/10/18 05:51:44;;;;;;;14.27;9.80;;;8.80;99.90;;;;;;5023037;28;20295;-62
2021/10/18 05:54:10;;;;;;;13.30;9.80;;;8.70;99.90;;;;;;5031694;28;20254;-62
2021/10/18 05:56:35;;;;;;;11.80;8.87;;;8.80;99.90;;;;;;5016834;28;20374;-61
2021/10/18 05:59:01;;;;;;;11.10;7.80;;;8.50;99.90;;;;;;5023422;28;20184;-61
2021/10/18 06:01:27;;;;;;;14.07;11.00;;;8.30;99.90;;;;;;5020013;28;20211;-61
2021/10/18 06:03:52;;;;;;;10.93;7.70;;;8.40;99.90;;;;;;5021763;28;20172;-62
2021/10/18 06:06:18;;;;;;;12.73;8.53;;;8.30;99.90;;;;;;5026537;28;20253;-62
2021/10/18 06:08:44;;;;;;;12.17;7.63;;;8.50;99.90;;;;;;5017784;28;20663;-61
2021/10/18 06:11:10;;;;;;;11.57;7.40;;;8.80;99.90;;;;;;5021368;28;20201;-61
2021/10/18 06:13:36;;;;;;;12.10;8.17;;;9.00;99.90;;;;;;5025470;28;20188;-61
2021/10/18 06:16:02;;;;;;;11.97;8.10;;;8.70;99.90;;;;;;5024583;28;20984;-60
2021/10/18 06:18:28;;;;;;;11.33;8.50;;;8.70;99.90;;;;;;5025873;28;20180;-60
2021/10/18 06:20:55;;;;;;;16.03;9.70;;;8.80;99.90;;;;;;5023013;28;20520;-61
2021/10/18 06:23:22;;;;;;;15.60;10.60;;;8.70;99.90;;;;;;5023060;28;20669;-61
2021/10/18 06:25:48;;;;;;;24.33;9.53;;;8.90;99.90;;;;;;5023917;28;20442;-61
2021/10/18 06:28:14;;;;;;;14.43;9.77;;;8.70;99.90;;;;;;5026896;28;20435;-63
2021/10/18 06:30:40;;;;;;;11.90;10.33;;;8.20;99.90;;;;;;5022751;28;20740;-61
2021/10/18 06:33:06;;;;;;;14.03;9.30;;;8.10;99.90;;;;;;5022968;28;20423;-61
2021/10/18 06:35:33;;;;;;;9.97;8.53;;;8.20;99.90;;;;;;5021648;28;20447;-61
2021/10/18 06:37:59;;;;;;;14.47;8.10;;;8.40;99.90;;;;;;5021451;28;20438;-60
2021/10/18 06:40:25;;;;;;;12.67;9.57;;;8.40;99.90;;;;;;5021721;28;21130;-61
2021/10/18 06:42:50;;;;;;;12.50;8.63;;;8.20;99.90;;;;;;5024059;28;20207;-61
2021/10/18 06:45:16;;;;;;;17.67;9.90;;;8.40;99.90;;;;;;5023159;28;20439;-62
2021/10/18 06:47:42;;;;;;;12.53;9.20;;;8.80;99.90;;;;;;5026212;28;20180;-61
2021/10/18 06:50:09;;;;;;;13.53;9.60;;;9.00;99.90;;;;;;5023309;28;20208;-61
2021/10/18 06:52:38;;;;;;;12.10;8.50;;;9.30;99.90;;;;;;5021821;28;20428;-62
2021/10/18 06:55:05;;;;;;;11.03;7.93;;;9.30;99.90;;;;;;5022597;28;20461;-61
2021/10/18 06:57:32;;;;;;;10.33;8.23;;;9.50;99.90;;;;;;5022670;28;20570;-62
2021/10/18 06:59:58;;;;;;;9.90;7.57;;;9.60;99.90;;;;;;5026843;28;20435;-61
2021/10/18 07:02:27;;;;;;;9.37;7.23;;;9.70;99.90;;;;;;5021284;28;20463;-61
2021/10/18 07:04:53;;;;;;;11.10;8.07;;;9.80;99.90;;;;;;5023645;28;20418;-61
2021/10/18 07:07:19;;;;;;;8.90;7.47;;;9.90;99.90;;;;;;5023869;28;20432;-61
2021/10/18 07:09:45;;;;;;;11.00;7.07;;;9.90;99.90;;;;;;5018237;28;20514;-61
2021/10/18 07:12:11;;;;;;;8.70;6.60;;;9.90;99.90;;;;;;5021123;28;21276;-61
2021/10/18 07:14:37;;;;;;;8.47;6.50;;;9.90;99.90;;;;;;5027807;28;20437;-61
2021/10/18 07:17:03;;;;;;;9.17;6.40;;;9.90;99.90;;;;;;5021440;28;20181;-61
2021/10/18 07:19:29;;;;;;;7.73;6.30;;;9.90;99.90;;;;;;5021707;28;20180;-61
2021/10/18 07:21:55;;;;;;;16.40;12.40;;;10.00;99.90;;;;;;5021642;28;20672;-61
2021/10/18 07:24:21;;;;;;;12.63;7.30;;;10.00;99.90;;;;;;5023404;28;20436;-61
2021/10/18 07:26:49;;;;;;;9.83;7.13;;;9.90;99.90;;;;;;5029067;28;20518;-62
2021/10/18 07:29:16;;;;;;;9.40;6.33;;;9.70;99.90;;;;;;5022809;28;20189;-61
2021/10/18 07:31:43;;;;;;;9.10;7.50;;;9.70;99.90;;;;;;5030019;28;20467;-61
2021/10/18 07:34:14;;;;;;;7.70;6.53;;;9.20;99.90;;;;;;5019376;28;20429;-62
2021/10/18 07:36:49;;;;;;;7.43;6.40;;;9.20;99.90;;;;;;5023504;28;20664;-61
2021/10/18 07:39:24;;;;;;;9.30;6.53;;;9.30;99.90;;;;;;5020684;28;20496;-62
2021/10/18 07:41:51;;;;;;;8.90;6.67;;;9.30;99.90;;;;;;5021130;28;20493;-61
2021/10/18 07:44:17;;;;;;;9.87;6.80;;;9.60;99.90;;;;;;5019256;28;20434;-61
2021/10/18 07:46:44;;;;;;;10.40;6.20;;;9.40;99.90;;;;;;5023478;28;20437;-61
2021/10/18 07:49:10;;;;;;;9.83;7.40;;;9.40;99.90;;;;;;5017494;28;20443;-61
2021/10/18 07:51:36;;;;;;;9.30;6.67;;;9.30;99.90;;;;;;5025609;28;20455;-61
2021/10/18 07:54:03;;;;;;;11.10;7.40;;;9.20;99.90;;;;;;5019447;28;20269;-61
2021/10/18 07:56:28;;;;;;;8.57;5.83;;;9.10;99.90;;;;;;5023428;28;21000;-61
2021/10/18 07:58:54;;;;;;;9.23;7.03;;;9.40;99.90;;;;;;5025356;28;20482;-61
2021/10/18 08:01:20;;;;;;;10.40;7.83;;;9.30;99.90;;;;;;5011339;28;20240;-61
2021/10/18 08:03:45;;;;;;;6.97;6.13;;;9.40;99.90;;;;;;5022217;28;20239;-61
2021/10/18 08:06:11;;;;;;;8.33;6.10;;;9.50;99.90;;;;;;5022170;28;20184;-61
2021/10/18 08:08:44;;;;;;;14.03;9.10;;;9.60;99.90;;;;;;5028601;28;20176;-61
2021/10/18 08:11:11;;;;;;;8.60;7.03;;;9.70;99.90;;;;;;5014300;28;20247;-60
2021/10/18 08:13:38;;;;;;;9.27;7.17;;;9.80;99.90;;;;;;5019369;28;20803;-61
2021/10/18 08:16:05;;;;;;;7.90;6.83;;;9.70;99.90;;;;;;5020994;28;20840;-61
2021/10/18 08:18:30;;;;;;;10.90;7.10;;;9.90;99.90;;;;;;5022697;28;20455;-61
2021/10/18 08:20:57;;;;;;;9.03;6.57;;;9.90;99.90;;;;;;5019519;28;20986;-60
2021/10/18 08:23:22;;;;;;;9.70;7.77;;;9.80;99.90;;;;;;5022071;28;20200;-61
2021/10/18 08:25:48;;;;;;;11.27;7.43;;;9.70;99.90;;;;;;5020557;28;20474;-61
2021/10/18 08:28:13;;;;;;;8.03;6.93;;;10.10;99.90;;;;;;5023272;28;20193;-61
2021/10/18 08:30:39;;;;;;;8.60;6.37;;;10.10;99.90;;;;;;5020046;28;20224;-61
2021/10/18 08:33:05;;;;;;;8.40;6.73;;;10.00;99.90;;;;;;5019296;28;20183;-61
2021/10/18 08:35:32;;;;;;;8.77;7.03;;;10.00;99.90;;;;;;5020299;28;20561;-61
2021/10/18 08:46:02;;;;;;;8.07;7.10;;;10.10;99.90;;;;;;5018821;28;20447;-61
2021/10/18 08:48:29;;;;;;;8.50;7.17;;;10.10;99.90;;;;;;5025595;28;20472;-61
2021/10/18 08:50:55;;;;;;;8.03;7.00;;;10.10;99.90;;;;;;5024138;28;20463;-62
2021/10/18 08:53:21;;;;;;;7.30;6.47;;;10.00;99.90;;;;;;5020057;28;20466;-61
2021/10/18 08:55:46;;;;;;;9.77;6.20;;;10.10;99.90;;;;;;5006252;28;20193;-62
2021/10/18 08:58:12;;;;;;;8.40;7.40;;;10.10;99.90;;;;;;5024269;28;20182;-62
2021/10/18 09:00:58;;;;;;;7.50;6.70;;;10.30;99.90;;;;;;5023271;28;20228;-63
2021/10/18 09:03:28;;;;;;;9.13;7.20;;;10.50;99.90;;;;;;5024405;28;20204;-61
2021/10/18 09:06:16;;;;;;;10.37;7.43;;;10.40;99.90;;;;;;5024141;28;20418;-62
2021/10/18 09:08:50;;;;;;;10.90;7.57;;;10.60;99.90;;;;;;5024228;28;20423;-62
2021/10/18 09:11:17;;;;;;;13.10;7.67;;;10.70;99.90;;;;;;5021762;28;20887;-61
2021/10/18 09:13:45;;;;;;;15.80;8.87;;;10.70;99.90;;;;;;5022873;28;20867;-62
2021/10/18 09:16:20;;;;;;;9.57;8.50;;;10.90;99.90;;;;;;5022314;28;20416;-62
2021/10/18 09:18:57;;;;;;;12.00;8.83;;;11.00;99.90;;;;;;5025178;28;20489;-62
2021/10/18 09:21:31;;;;;;;11.00;8.30;;;11.10;99.90;;;;;;5021173;28;21059;-63
2021/10/18 09:23:59;;;;;;;10.90;8.20;;;11.10;99.90;;;;;;5018320;28;20811;-62
2021/10/18 09:26:25;;;;;;;11.20;8.33;;;11.20;99.90;;;;;;5025510;28;20419;-64
2021/10/18 09:28:55;;;;;;;10.37;8.23;;;11.40;99.90;;;;;;5021268;28;20508;-63
2021/10/18 09:31:21;;;;;;;16.83;8.43;;;11.40;99.90;;;;;;5025171;28;20218;-62
2021/10/18 09:33:57;;;;;;;11.30;8.50;;;11.50;99.90;;;;;;5023635;28;20419;-62
2021/10/18 09:36:31;;;;;;;14.17;9.13;;;11.50;99.90;;;;;;5022136;28;20932;-62
2021/10/18 09:39:21;;;;;;;13.93;9.77;;;11.50;99.90;;;;;;5020376;28;20581;-62
2021/10/18 09:41:58;;;;;;;12.87;9.70;;;11.40;99.90;;;;;;5021170;28;20542;-62
2021/10/18 09:44:57;;;;;;;12.50;9.57;;;11.40;99.90;;;;;;5027434;28;20446;-62
2021/10/18 10:53:28;;;;;;;19.90;14.97;;;12.00;99.90;;;;;;5023992;28;20443;-62
2021/10/18 10:55:56;;;;;;;21.17;14.17;;;12.10;99.90;;;;;;5024181;28;20438;-62
2021/10/18 10:58:35;;;;;;;20.70;16.17;;;12.20;99.90;;;;;;5019051;28;20426;-61
2021/10/18 11:01:01;;;;;;;17.70;13.53;;;12.30;99.90;;;;;;5017123;28;20435;-62
2021/10/18 11:03:36;;;;;;;17.97;13.40;;;12.40;99.90;;;;;;5025602;28;20515;-62
2021/10/18 11:06:12;;;;;;;16.70;13.57;;;12.40;99.90;;;;;;5023693;28;20430;-61
2021/10/18 11:08:47;;;;;;;17.93;12.60;;;12.20;99.90;;;;;;5025139;28;20879;-62
2021/10/18 11:11:23;;;;;;;19.97;14.37;;;12.30;99.90;;;;;;5023181;28;20477;-61
2021/10/18 11:13:57;;;;;;;16.80;12.70;;;12.50;99.90;;;;;;5029215;28;20430;-61
2021/10/18 11:16:28;;;;;;;20.33;15.50;;;12.50;99.90;;;;;;5020332;28;20957;-62
2021/10/18 11:18:59;;;;;;;21.27;14.50;;;12.70;99.90;;;;;;5026524;28;20407;-62
2021/10/18 11:21:27;;;;;;;16.53;13.00;;;12.60;99.90;;;;;;5025879;28;20455;-62
2021/10/18 11:24:05;;;;;;;17.83;13.90;;;12.60;99.90;;;;;;5019757;28;21431;-62
2021/10/18 11:26:37;;;;;;;21.30;14.37;;;12.50;99.90;;;;;;5007759;28;20431;-63
2021/10/18 11:29:10;;;;;;;21.47;13.43;;;12.60;99.90;;;;;;5025454;28;21257;-62
2021/10/18 11:31:38;;;;;;;15.83;13.20;;;12.70;99.90;;;;;;5026107;28;20487;-63
2021/10/18 11:34:09;;;;;;;16.93;13.10;;;12.90;99.90;;;;;;5025843;28;20443;-62
2021/10/18 11:36:36;;;;;;;18.80;13.70;;;12.90;99.90;;;;;;5025767;28;20503;-62
2021/10/18 11:39:06;;;;;;;24.00;13.97;;;13.30;99.90;;;;;;5025740;28;20442;-62
2021/10/18 11:41:51;;;;;;;16.70;12.37;;;13.40;99.90;;;;;;5025751;28;20516;-63
2021/10/18 11:44:17;;;;;;;17.63;13.40;;;13.70;99.90;;;;;;5027004;28;20424;-62
2021/10/18 11:46:43;;;;;;;15.97;11.97;;;14.50;99.90;;;;;;5022068;28;20419;-63
2021/10/18 11:49:08;;;;;;;16.10;11.70;;;16.50;99.90;;;;;;5016629;28;20674;-63
2021/10/18 11:51:34;;;;;;;16.23;11.10;;;18.10;99.90;;;;;;5030201;28;20338;-63
2021/10/18 11:54:00;;;;;;;12.33;10.20;;;19.50;99.90;;;;;;5026010;28;20191;-63
2021/10/18 11:56:25;;;;;;;13.00;11.60;;;20.20;99.90;;;;;;5027798;28;20212;-63
2021/10/18 11:58:51;;;;;;;15.67;11.87;;;20.50;99.90;;;;;;5007158;28;20466;-63
2021/10/18 12:01:18;;;;;;;15.23;12.17;;;21.50;99.90;;;;;;5026464;28;20588;-63
2021/10/18 12:03:44;;;;;;;12.27;10.97;;;23.00;99.90;;;;;;5026018;28;20655;-63
2021/10/18 12:06:11;;;;;;;14.50;12.53;;;23.40;99.90;;;;;;5026266;28;20419;-63
2021/10/18 12:08:39;;;;;;;10.83;9.23;;;22.50;99.90;;;;;;5023644;28;20185;-63
2021/10/18 12:11:07;;;;;;;11.37;10.17;;;23.80;99.90;;;;;;5020107;28;20462;-63
2021/10/18 12:13:35;;;;;;;11.70;10.50;;;24.80;99.90;;;;;;5024091;28;20426;-63
2021/10/18 12:16:04;;;;;;;11.20;9.37;;;24.20;99.90;;;;;;5022176;28;21097;-63
2021/10/18 12:18:32;;;;;;;16.33;10.40;;;25.30;99.50;;;;;;5019359;28;20442;-62
2021/10/18 12:21:08;;;;;;;11.27;10.07;;;25.80;97.80;;;;;;5021564;28;20431;-64
2021/10/18 12:23:46;;;;;;;15.73;11.77;;;25.40;94.30;;;;;;5019039;28;20835;-63
2021/10/18 12:26:17;;;;;;;13.13;11.67;;;25.30;95.30;;;;;;5027310;28;20438;-63
2021/10/18 12:28:48;;;;;;;12.60;11.40;;;25.00;94.10;;;;;;5026562;28;20891;-62
2021/10/18 12:31:42;;;;;;;12.33;11.03;;;24.50;94.20;;;;;;5018779;28;20467;-62
2021/10/18 12:34:23;;;;;;;12.97;11.63;;;24.10;94.70;;;;;;4997255;28;20918;-63
2021/10/18 12:37:05;;;;;;;13.40;11.90;;;23.80;95.30;;;;;;5018742;28;20440;-62
2021/10/18 12:39:43;;;;;;;15.17;12.30;;;24.20;94.30;;;;;;5025998;28;20430;-63
2021/10/18 12:42:17;;;;;;;12.63;11.40;;;24.30;94.60;;;;;;5022905;28;20463;-62
2021/10/18 12:44:45;;;;;;;13.20;11.80;;;25.10;93.40;;;;;;5022882;28;20907;-62
2021/10/18 12:47:20;;;;;;;15.93;11.70;;;26.00;91.90;;;;;;5017766;28;20426;-63
2021/10/18 12:49:53;;;;;;;13.83;10.77;;;26.50;90.80;;;;;;5024153;28;20430;-63
2021/10/18 12:52:32;;;;;;;12.50;11.20;;;26.30;90.70;;;;;;5022444;28;20462;-63
2021/10/18 12:54:59;;;;;;;11.40;10.30;;;27.70;86.10;;;;;;5023235;28;20502;-63
2021/10/18 12:57:30;;;;;;;11.73;10.17;;;27.60;84.20;;;;;;5022369;28;20415;-62
2021/10/18 13:00:11;;;;;;;12.43;11.10;;;26.60;84.20;;;;;;5018995;28;20898;-63
2021/10/18 13:02:46;;;;;;;12.23;11.03;;;25.90;85.80;;;;;;5022651;28;20497;-62
2021/10/18 13:05:16;;;;;;;13.83;12.47;;;25.60;84.60;;;;;;5025953;28;21051;-62
2021/10/18 13:07:49;;;;;;;13.53;11.20;;;25.00;85.30;;;;;;5023830;28;20415;-63
2021/10/18 13:10:15;;;;;;;11.70;10.40;;;25.30;86.60;;;;;;5027818;28;20450;-63
2021/10/18 13:12:43;;;;;;;12.23;10.80;;;24.80;87.70;;;;;;5012213;28;20803;-62
2021/10/18 13:15:10;;;;;;;11.77;10.20;;;25.00;86.60;;;;;;5025631;28;20466;-63
2021/10/18 13:17:36;;;;;;;14.53;11.80;;;24.10;88.00;;;;;;5021563;28;20426;-62
2021/10/18 13:20:02;;;;;;;12.63;11.00;;;24.40;88.50;;;;;;5022902;28;20447;-61
2021/10/18 13:22:28;;;;;;;13.50;11.77;;;24.40;88.70;;;;;;5023699;28;20455;-62
2021/10/18 13:24:54;;;;;;;11.87;10.67;;;24.10;89.40;;;;;;5027112;28;20419;-62
2021/10/18 13:27:20;;;;;;;11.73;10.53;;;23.80;90.40;;;;;;5021616;28;20402;-62
2021/10/18 13:29:46;;;;;;;12.57;11.37;;;24.30;90.70;;;;;;5024241;28;20188;-63
2021/10/18 13:32:12;;;;;;;12.80;11.13;;;24.70;88.30;;;;;;5024373;28;20209;-63
2021/10/18 13:34:40;;;;;;;10.90;9.80;;;24.10;88.40;;;;;;5020618;28;20563;-63
2021/10/18 13:37:06;;;;;;;12.03;10.80;;;23.60;90.70;;;;;;5025172;28;20726;-63
2021/10/18 13:39:31;;;;;;;16.90;12.73;;;23.80;90.20;;;;;;5019059;28;20903;-63
2021/10/18 13:41:57;;;;;;;12.63;10.80;;;22.60;91.10;;;;;;5023178;28;20217;-62
2021/10/18 13:44:23;;;;;;;12.50;11.20;;;22.20;91.40;;;;;;5004590;28;20709;-62
2021/10/18 13:46:48;;;;;;;12.07;10.63;;;22.30;92.00;;;;;;5024824;28;20185;-62
2021/10/18 13:49:14;;;;;;;12.23;10.97;;;21.70;92.70;;;;;;5022731;28;20673;-62
2021/10/18 13:51:40;;;;;;;14.37;11.70;;;21.60;93.10;;;;;;5026709;28;20212;-62
2021/10/18 13:54:07;;;;;;;11.60;10.40;;;21.40;93.40;;;;;;5022768;28;21001;-62
2021/10/18 13:56:34;;;;;;;16.40;11.10;;;20.60;94.20;;;;;;5026731;28;20488;-62